sensor_id;sensor_type;location;lat;lon;timestamp;temperature;humidity
13245;DHT22;6689;53.400;12.486;2023-02-24T00:00:15;5.00;99.90
13245;DHT22;6689;53.400;12.486;2023-02-24T00:02:57;5.00;99.90
13245;DHT22;6689;53.400;12.486;2023-02-24T00:05:33;4.90;99.90
13245;DHT22;6689;53.400;12.486;2023-02-24T00:08:01;4.90;99.90
13245;DHT22;6689;53.400;12.486;2023-02-24T00:10:29;5.00;99.90
13245;DHT22;6689;53.400;12.486;2023-02-24T00:12:57;4.90;99.90
13245;DHT22;6689;53.400;12.486;2023-02-24T00:15:25;4.70;99.90
13245;DHT22;6689;53.400;12.486;2023-02-24T00:17:52;4.70;99.90
13245;DHT22;6689;53.400;12.486;2023-02-24T00:20:22;4.80;99.90
13245;DHT22;6689;53.400;12.486;2023-02-24T00:22:51;4.70;99.90
13245;DHT22;6689;53.400;12.486;2023-02-24T00:25:19;4.80;99.90
13245;DHT22;6689;53.400;12.486;2023-02-24T00:27:47;4.70;99.90
13245;DHT22;6689;53.400;12.486;2023-02-24T00:30:15;4.70;99.90
13245;DHT22;6689;53.400;12.486;2023-02-24T00:32:46;4.80;99.90
13245;DHT22;6689;53.400;12.486;2023-02-24T00:35:13;4.80;99.90
13245;DHT22;6689;53.400;12.486;2023-02-24T00:37:40;4.90;99.90
13245;DHT22;6689;53.400;12.486;2023-02-24T00:40:10;4.80;99.90
13245;DHT22;6689;53.400;12.486;2023-02-24T00:42:38;4.80;99.90
13245;DHT22;6689;53.400;12.486;2023-02-24T00:45:08;4.80;99.90
13245;DHT22;6689;53.400;12.486;2023-02-24T00:47:39;4.80;99.90
13245;DHT22;6689;53.400;12.486;2023-02-24T00:50:07;4.80;99.90
13245;DHT22;6689;53.400;12.486;2023-02-24T00:52:35;4.80;99.90
13245;DHT22;6689;53.400;12.486;2023-02-24T00:55:03;4.70;99.90
13245;DHT22;6689;53.400;12.486;2023-02-24T00:57:40;4.80;99.90
13245;DHT22;6689;53.400;12.486;2023-02-24T01:00:08;4.90;99.90
13245;DHT22;6689;53.400;12.486;2023-02-24T01:02:41;5.00;99.90
13245;DHT22;6689;53.400;12.486;2023-02-24T01:05:11;4.90;99.90
13245;DHT22;6689;53.400;12.486;2023-02-24T01:07:39;5.00;99.90
13245;DHT22;6689;53.400;12.486;2023-02-24T01:10:07;5.00;99.90
13245;DHT22;6689;53.400;12.486;2023-02-24T01:12:36;5.10;99.90
13245;DHT22;6689;53.400;12.486;2023-02-24T01:15:22;4.90;99.90
13245;DHT22;6689;53.400;12.486;2023-02-24T01:17:50;5.00;99.90
13245;DHT22;6689;53.400;12.486;2023-02-24T01:20:18;5.00;99.90
13245;DHT22;6689;53.400;12.486;2023-02-24T01:22:50;5.10;99.90
13245;DHT22;6689;53.400;12.486;2023-02-24T01:25:18;4.80;99.90
13245;DHT22;6689;53.400;12.486;2023-02-24T01:27:47;4.90;99.90
13245;DHT22;6689;53.400;12.486;2023-02-24T01:30:15;5.00;99.90
13245;DHT22;6689;53.400;12.486;2023-02-24T01:32:45;4.80;99.90
13245;DHT22;6689;53.400;12.486;2023-02-24T01:35:14;4.90;99.90
13245;DHT22;6689;53.400;12.486;2023-02-24T01:37:45;4.80;99.90
13245;DHT22;6689;53.400;12.486;2023-02-24T01:40:14;4.70;99.90
13245;DHT22;6689;53.400;12.486;2023-02-24T01:42:45;4.90;99.90
13245;DHT22;6689;53.400;12.486;2023-02-24T01:45:20;4.80;99.90
13245;DHT22;6689;53.400;12.486;2023-02-24T01:47:50;4.80;99.90
13245;DHT22;6689;53.400;12.486;2023-02-24T01:50:20;4.80;99.90
13245;DHT22;6689;53.400;12.486;2023-02-24T01:52:49;4.90;99.90
13245;DHT22;6689;53.400;12.486;2023-02-24T01:55:19;4.90;99.90
13245;DHT22;6689;53.400;12.486;2023-02-24T01:57:51;4.90;99.90
13245;DHT22;6689;53.400;12.486;2023-02-24T02:00:20;4.70;99.90
13245;DHT22;6689;53.400;12.486;2023-02-24T02:03:08;4.80;99.90
13245;DHT22;6689;53.400;12.486;2023-02-24T02:05:38;4.60;99.90
13245;DHT22;6689;53.400;12.486;2023-02-24T02:08:07;4.60;99.90
13245;DHT22;6689;53.400;12.486;2023-02-24T02:10:35;4.50;99.90
13245;DHT22;6689;53.400;12.486;2023-02-24T02:13:04;4.40;99.90
13245;DHT22;6689;53.400;12.486;2023-02-24T02:15:36;4.50;99.90
13245;DHT22;6689;53.400;12.486;2023-02-24T02:18:14;4.50;99.90
13245;DHT22;6689;53.400;12.486;2023-02-24T02:21:16;4.40;99.90
13245;DHT22;6689;53.400;12.486;2023-02-24T02:23:57;4.50;99.90
13245;DHT22;6689;53.400;12.486;2023-02-24T02:36:09;4.60;99.90
13245;DHT22;6689;53.400;12.486;2023-02-24T02:38:44;4.50;99.90
13245;DHT22;6689;53.400;12.486;2023-02-24T02:41:16;4.50;99.90
13245;DHT22;6689;53.400;12.486;2023-02-24T02:43:49;4.50;99.90
13245;DHT22;6689;53.400;12.486;2023-02-24T02:46:25;4.50;99.90
13245;DHT22;6689;53.400;12.486;2023-02-24T02:49:03;4.40;99.90
13245;DHT22;6689;53.400;12.486;2023-02-24T02:51:38;4.40;99.90
13245;DHT22;6689;53.400;12.486;2023-02-24T02:54:11;4.40;99.90
13245;DHT22;6689;53.400;12.486;2023-02-24T02:56:43;4.50;99.90
13245;DHT22;6689;53.400;12.486;2023-02-24T02:59:13;4.30;99.90
13245;DHT22;6689;53.400;12.486;2023-02-24T03:01:46;4.40;99.90
13245;DHT22;6689;53.400;12.486;2023-02-24T03:04:16;4.30;99.90
13245;DHT22;6689;53.400;12.486;2023-02-24T03:06:51;4.40;99.90
13245;DHT22;6689;53.400;12.486;2023-02-24T03:09:21;4.30;99.90
13245;DHT22;6689;53.400;12.486;2023-02-24T03:11:54;4.40;99.90
13245;DHT22;6689;53.400;12.486;2023-02-24T03:14:27;4.50;99.90
13245;DHT22;6689;53.400;12.486;2023-02-24T03:16:56;4.50;99.90
13245;DHT22;6689;53.400;12.486;2023-02-24T03:19:29;4.60;99.90
13245;DHT22;6689;53.400;12.486;2023-02-24T03:22:03;4.60;99.90
13245;DHT22;6689;53.400;12.486;2023-02-24T03:24:32;4.60;99.90
13245;DHT22;6689;53.400;12.486;2023-02-24T03:27:08;4.60;99.90
13245;DHT22;6689;53.400;12.486;2023-02-24T03:29:42;4.60;99.90
13245;DHT22;6689;53.400;12.486;2023-02-24T03:32:19;4.40;99.90
13245;DHT22;6689;53.400;12.486;2023-02-24T03:34:52;4.60;99.90
13245;DHT22;6689;53.400;12.486;2023-02-24T03:37:23;4.50;99.90
13245;DHT22;6689;53.400;12.486;2023-02-24T03:39:52;4.50;99.90
13245;DHT22;6689;53.400;12.486;2023-02-24T03:42:22;4.50;99.90
13245;DHT22;6689;53.400;12.486;2023-02-24T03:44:51;4.50;99.90
13245;DHT22;6689;53.400;12.486;2023-02-24T03:47:23;4.60;99.90
13245;DHT22;6689;53.400;12.486;2023-02-24T03:49:51;4.70;99.90
13245;DHT22;6689;53.400;12.486;2023-02-24T03:52:29;4.70;99.90
13245;DHT22;6689;53.400;12.486;2023-02-24T03:55:15;4.60;99.90
13245;DHT22;6689;53.400;12.486;2023-02-24T03:57:55;4.60;99.90
13245;DHT22;6689;53.400;12.486;2023-02-24T04:00:30;4.60;99.90
13245;DHT22;6689;53.400;12.486;2023-02-24T04:03:13;4.60;99.90
13245;DHT22;6689;53.400;12.486;2023-02-24T04:05:46;4.60;99.90
13245;DHT22;6689;53.400;12.486;2023-02-24T04:08:21;4.50;99.90
13245;DHT22;6689;53.400;12.486;2023-02-24T04:10:52;4.60;99.90
13245;DHT22;6689;53.400;12.486;2023-02-24T04:13:29;4.60;99.90
13245;DHT22;6689;53.400;12.486;2023-02-24T04:16:03;4.50;99.90
13245;DHT22;6689;53.400;12.486;2023-02-24T04:18:34;4.60;99.90
13245;DHT22;6689;53.400;12.486;2023-02-24T04:21:03;4.60;99.90
13245;DHT22;6689;53.400;12.486;2023-02-24T04:23:35;4.60;99.90
13245;DHT22;6689;53.400;12.486;2023-02-24T04:26:05;4.80;99.90
13245;DHT22;6689;53.400;12.486;2023-02-24T04:28:33;4.60;99.90
13245;DHT22;6689;53.400;12.486;2023-02-24T04:31:05;4.70;99.90
13245;DHT22;6689;53.400;12.486;2023-02-24T04:33:37;4.60;99.90
13245;DHT22;6689;53.400;12.486;2023-02-24T04:36:06;4.50;99.90
13245;DHT22;6689;53.400;12.486;2023-02-24T04:38:38;4.60;99.90
13245;DHT22;6689;53.400;12.486;2023-02-24T04:41:06;4.60;99.90
13245;DHT22;6689;53.400;12.486;2023-02-24T04:43:34;4.50;99.90
13245;DHT22;6689;53.400;12.486;2023-02-24T04:46:01;4.50;99.90
13245;DHT22;6689;53.400;12.486;2023-02-24T04:48:33;4.50;99.90
13245;DHT22;6689;53.400;12.486;2023-02-24T04:51:00;4.40;99.90
13245;DHT22;6689;53.400;12.486;2023-02-24T04:53:28;4.40;99.90
13245;DHT22;6689;53.400;12.486;2023-02-24T04:56:01;4.50;99.90
13245;DHT22;6689;53.400;12.486;2023-02-24T04:58:34;4.40;99.90
13245;DHT22;6689;53.400;12.486;2023-02-24T05:01:06;4.40;99.90
13245;DHT22;6689;53.400;12.486;2023-02-24T05:03:35;4.40;99.90
13245;DHT22;6689;53.400;12.486;2023-02-24T05:06:03;4.40;99.90
13245;DHT22;6689;53.400;12.486;2023-02-24T05:08:31;4.40;99.90
13245;DHT22;6689;53.400;12.486;2023-02-24T05:11:00;4.40;99.90
13245;DHT22;6689;53.400;12.486;2023-02-24T05:13:30;4.40;99.90
13245;DHT22;6689;53.400;12.486;2023-02-24T05:16:02;4.40;99.90
13245;DHT22;6689;53.400;12.486;2023-02-24T05:18:30;4.20;99.90
13245;DHT22;6689;53.400;12.486;2023-02-24T05:21:05;4.40;99.90
13245;DHT22;6689;53.400;12.486;2023-02-24T05:23:51;4.40;99.90
13245;DHT22;6689;53.400;12.486;2023-02-24T05:26:21;4.40;99.90
13245;DHT22;6689;53.400;12.486;2023-02-24T05:28:52;4.40;99.90
13245;DHT22;6689;53.400;12.486;2023-02-24T05:31:25;4.30;99.90
13245;DHT22;6689;53.400;12.486;2023-02-24T05:33:54;4.30;99.90
13245;DHT22;6689;53.400;12.486;2023-02-24T05:36:24;4.30;99.90
13245;DHT22;6689;53.400;12.486;2023-02-24T05:38:53;4.30;99.90
13245;DHT22;6689;53.400;12.486;2023-02-24T05:41:25;4.30;99.90
13245;DHT22;6689;53.400;12.486;2023-02-24T05:43:58;4.30;99.90
13245;DHT22;6689;53.400;12.486;2023-02-24T05:46:30;4.10;99.90
13245;DHT22;6689;53.400;12.486;2023-02-24T05:49:00;4.20;99.90
13245;DHT22;6689;53.400;12.486;2023-02-24T05:51:29;4.20;99.90
13245;DHT22;6689;53.400;12.486;2023-02-24T05:54:00;4.20;99.90
13245;DHT22;6689;53.400;12.486;2023-02-24T05:56:31;4.20;99.90
13245;DHT22;6689;53.400;12.486;2023-02-24T05:59:00;4.20;99.90
13245;DHT22;6689;53.400;12.486;2023-02-24T06:01:28;4.20;99.90
13245;DHT22;6689;53.400;12.486;2023-02-24T06:03:58;4.20;1.00
13245;DHT22;6689;53.400;12.486;2023-02-24T06:06:34;4.20;99.90
13245;DHT22;6689;53.400;12.486;2023-02-24T06:09:02;4.10;1.00
13245;DHT22;6689;53.400;12.486;2023-02-24T06:11:37;4.20;1.00
13245;DHT22;6689;53.400;12.486;2023-02-24T06:14:06;4.20;1.00
13245;DHT22;6689;53.400;12.486;2023-02-24T06:16:35;4.10;1.00
13245;DHT22;6689;53.400;12.486;2023-02-24T06:19:04;4.10;1.00
13245;DHT22;6689;53.400;12.486;2023-02-24T06:21:33;4.10;1.00
13245;DHT22;6689;53.400;12.486;2023-02-24T06:24:01;4.00;1.00
13245;DHT22;6689;53.400;12.486;2023-02-24T06:26:29;4.00;1.00
13245;DHT22;6689;53.400;12.486;2023-02-24T06:28:59;4.10;1.00
13245;DHT22;6689;53.400;12.486;2023-02-24T06:31:27;4.10;1.00
13245;DHT22;6689;53.400;12.486;2023-02-24T06:33:54;4.10;1.00
13245;DHT22;6689;53.400;12.486;2023-02-24T06:36:22;4.10;1.00
13245;DHT22;6689;53.400;12.486;2023-02-24T06:38:49;4.10;1.00
13245;DHT22;6689;53.400;12.486;2023-02-24T06:41:17;4.10;1.00
13245;DHT22;6689;53.400;12.486;2023-02-24T06:43:44;4.10;1.00
13245;DHT22;6689;53.400;12.486;2023-02-24T06:46:15;4.10;1.00
13245;DHT22;6689;53.400;12.486;2023-02-24T06:48:44;4.10;1.00
13245;DHT22;6689;53.400;12.486;2023-02-24T06:51:14;4.10;1.00
13245;DHT22;6689;53.400;12.486;2023-02-24T06:53:42;4.10;1.00
13245;DHT22;6689;53.400;12.486;2023-02-24T06:56:11;4.10;1.00
13245;DHT22;6689;53.400;12.486;2023-02-24T06:58:41;4.10;1.00
13245;DHT22;6689;53.400;12.486;2023-02-24T07:01:14;4.10;1.00
13245;DHT22;6689;53.400;12.486;2023-02-24T07:03:42;4.20;1.00
13245;DHT22;6689;53.400;12.486;2023-02-24T07:06:28;4.20;1.00
13245;DHT22;6689;53.400;12.486;2023-02-24T07:08:57;4.20;99.90
13245;DHT22;6689;53.400;12.486;2023-02-24T07:11:24;4.20;99.90
13245;DHT22;6689;53.400;12.486;2023-02-24T07:13:53;4.30;99.90
13245;DHT22;6689;53.400;12.486;2023-02-24T07:16:24;4.30;1.00
13245;DHT22;6689;53.400;12.486;2023-02-24T07:18:54;4.30;1.40
13245;DHT22;6689;53.400;12.486;2023-02-24T07:21:22;4.30;99.90
13245;DHT22;6689;53.400;12.486;2023-02-24T07:23:52;4.30;99.90
13245;DHT22;6689;53.400;12.486;2023-02-24T07:26:23;4.30;99.90
13245;DHT22;6689;53.400;12.486;2023-02-24T07:28:55;4.30;99.90
13245;DHT22;6689;53.400;12.486;2023-02-24T07:31:25;4.30;99.90
13245;DHT22;6689;53.400;12.486;2023-02-24T07:33:52;4.30;99.90
13245;DHT22;6689;53.400;12.486;2023-02-24T07:36:22;4.30;99.90
13245;DHT22;6689;53.400;12.486;2023-02-24T07:38:51;4.30;99.90
13245;DHT22;6689;53.400;12.486;2023-02-24T07:41:20;4.30;99.90
13245;DHT22;6689;53.400;12.486;2023-02-24T07:43:49;4.30;99.90
13245;DHT22;6689;53.400;12.486;2023-02-24T07:46:18;4.30;99.90
13245;DHT22;6689;53.400;12.486;2023-02-24T07:48:46;4.40;99.90
13245;DHT22;6689;53.400;12.486;2023-02-24T07:51:18;4.30;99.90
13245;DHT22;6689;53.400;12.486;2023-02-24T07:53:48;4.40;99.90
13245;DHT22;6689;53.400;12.486;2023-02-24T07:56:18;4.30;99.90
13245;DHT22;6689;53.400;12.486;2023-02-24T07:58:52;4.40;99.90
13245;DHT22;6689;53.400;12.486;2023-02-24T08:01:25;4.40;99.90
13245;DHT22;6689;53.400;12.486;2023-02-24T08:06:57;4.40;99.90
13245;DHT22;6689;53.400;12.486;2023-02-24T08:09:28;4.30;99.90
13245;DHT22;6689;53.400;12.486;2023-02-24T08:12:13;4.30;99.90
13245;DHT22;6689;53.400;12.486;2023-02-24T08:14:43;4.40;99.90
13245;DHT22;6689;53.400;12.486;2023-02-24T08:17:15;4.40;99.90
13245;DHT22;6689;53.400;12.486;2023-02-24T08:19:46;4.30;99.90
13245;DHT22;6689;53.400;12.486;2023-02-24T08:22:16;4.40;99.90
13245;DHT22;6689;53.400;12.486;2023-02-24T08:24:51;4.40;99.90
13245;DHT22;6689;53.400;12.486;2023-02-24T08:27:20;4.30;99.90
13245;DHT22;6689;53.400;12.486;2023-02-24T08:29:49;4.40;99.90
13245;DHT22;6689;53.400;12.486;2023-02-24T08:32:30;4.40;99.90
13245;DHT22;6689;53.400;12.486;2023-02-24T08:34:59;4.40;99.90
13245;DHT22;6689;53.400;12.486;2023-02-24T08:37:31;4.50;99.90
13245;DHT22;6689;53.400;12.486;2023-02-24T08:40:07;4.30;1.00
13245;DHT22;6689;53.400;12.486;2023-02-24T08:42:56;4.30;1.00
13245;DHT22;6689;53.400;12.486;2023-02-24T08:45:24;4.00;1.00
13245;DHT22;6689;53.400;12.486;2023-02-24T08:47:53;4.10;1.00
13245;DHT22;6689;53.400;12.486;2023-02-24T08:50:26;4.20;1.00
13245;DHT22;6689;53.400;12.486;2023-02-24T08:52:57;4.20;1.00
13245;DHT22;6689;53.400;12.486;2023-02-24T08:55:25;4.00;1.00
13245;DHT22;6689;53.400;12.486;2023-02-24T08:57:58;4.00;1.00
13245;DHT22;6689;53.400;12.486;2023-02-24T09:00:26;4.00;1.00
13245;DHT22;6689;53.400;12.486;2023-02-24T09:03:14;4.00;1.00
13245;DHT22;6689;53.400;12.486;2023-02-24T09:06:00;4.00;1.00
13245;DHT22;6689;53.400;12.486;2023-02-24T09:08:31;3.90;1.00
13245;DHT22;6689;53.400;12.486;2023-02-24T09:11:00;3.80;1.00
13245;DHT22;6689;53.400;12.486;2023-02-24T09:13:33;3.80;14.80
13245;DHT22;6689;53.400;12.486;2023-02-24T09:16:01;3.90;20.00
13245;DHT22;6689;53.400;12.486;2023-02-24T09:18:28;3.80;10.80
13245;DHT22;6689;53.400;12.486;2023-02-24T09:21:13;3.80;33.00
13245;DHT22;6689;53.400;12.486;2023-02-24T09:24:00;3.80;28.30
13245;DHT22;6689;53.400;12.486;2023-02-24T09:26:33;3.80;46.60
13245;DHT22;6689;53.400;12.486;2023-02-24T09:29:09;3.70;86.50
13245;DHT22;6689;53.400;12.486;2023-02-24T09:31:58;3.70;82.90
13245;DHT22;6689;53.400;12.486;2023-02-24T09:34:30;3.70;77.10
13245;DHT22;6689;53.400;12.486;2023-02-24T09:36:57;3.70;81.90
13245;DHT22;6689;53.400;12.486;2023-02-24T09:39:30;3.60;87.30
13245;DHT22;6689;53.400;12.486;2023-02-24T09:42:19;3.50;99.90
13245;DHT22;6689;53.400;12.486;2023-02-24T09:45:01;3.50;99.90
13245;DHT22;6689;53.400;12.486;2023-02-24T09:47:35;3.40;99.90
13245;DHT22;6689;53.400;12.486;2023-02-24T09:50:27;3.40;99.90
13245;DHT22;6689;53.400;12.486;2023-02-24T09:53:13;3.40;99.90
13245;DHT22;6689;53.400;12.486;2023-02-24T09:55:48;3.40;99.90
13245;DHT22;6689;53.400;12.486;2023-02-24T09:58:37;3.40;99.90
13245;DHT22;6689;53.400;12.486;2023-02-24T10:01:31;3.40;99.90
13245;DHT22;6689;53.400;12.486;2023-02-24T10:04:27;3.40;99.90
13245;DHT22;6689;53.400;12.486;2023-02-24T10:07:03;3.30;99.90
13245;DHT22;6689;53.400;12.486;2023-02-24T10:09:34;3.30;99.90
13245;DHT22;6689;53.400;12.486;2023-02-24T10:12:06;3.40;99.90
13245;DHT22;6689;53.400;12.486;2023-02-24T10:14:44;3.30;99.90
13245;DHT22;6689;53.400;12.486;2023-02-24T10:17:15;3.30;99.90
13245;DHT22;6689;53.400;12.486;2023-02-24T10:19:49;3.30;99.90
13245;DHT22;6689;53.400;12.486;2023-02-24T10:22:36;3.20;99.90
13245;DHT22;6689;53.400;12.486;2023-02-24T10:25:26;3.30;99.90
13245;DHT22;6689;53.400;12.486;2023-02-24T10:28:05;3.30;99.90
13245;DHT22;6689;53.400;12.486;2023-02-24T10:30:43;3.20;99.90
13245;DHT22;6689;53.400;12.486;2023-02-24T10:33:21;3.30;99.90
13245;DHT22;6689;53.400;12.486;2023-02-24T10:36:06;3.20;99.90
13245;DHT22;6689;53.400;12.486;2023-02-24T10:38:34;3.20;99.90
13245;DHT22;6689;53.400;12.486;2023-02-24T10:41:02;3.10;99.90
13245;DHT22;6689;53.400;12.486;2023-02-24T10:43:33;3.10;99.90
13245;DHT22;6689;53.400;12.486;2023-02-24T10:46:22;3.10;99.90
13245;DHT22;6689;53.400;12.486;2023-02-24T10:48:53;3.10;99.90
13245;DHT22;6689;53.400;12.486;2023-02-24T10:51:28;3.10;99.90
13245;DHT22;6689;53.400;12.486;2023-02-24T10:54:11;3.10;99.90
13245;DHT22;6689;53.400;12.486;2023-02-24T10:57:05;3.10;99.90
13245;DHT22;6689;53.400;12.486;2023-02-24T10:59:51;3.00;99.90
13245;DHT22;6689;53.400;12.486;2023-02-24T11:02:44;3.10;99.90
13245;DHT22;6689;53.400;12.486;2023-02-24T11:05:34;3.20;99.90
13245;DHT22;6689;53.400;12.486;2023-02-24T11:08:14;3.20;99.90
13245;DHT22;6689;53.400;12.486;2023-02-24T11:11:06;3.30;99.90
13245;DHT22;6689;53.400;12.486;2023-02-24T11:13:34;3.30;99.90
13245;DHT22;6689;53.400;12.486;2023-02-24T11:16:21;3.30;99.90
13245;DHT22;6689;53.400;12.486;2023-02-24T11:19:14;3.30;99.90
13245;DHT22;6689;53.400;12.486;2023-02-24T11:21:42;3.30;99.90
13245;DHT22;6689;53.400;12.486;2023-02-24T11:24:14;3.30;99.90
13245;DHT22;6689;53.400;12.486;2023-02-24T11:26:44;3.30;99.90
13245;DHT22;6689;53.400;12.486;2023-02-24T11:29:38;3.30;99.90
13245;DHT22;6689;53.400;12.486;2023-02-24T11:32:29;3.30;99.90
13245;DHT22;6689;53.400;12.486;2023-02-24T11:35:02;3.30;99.90
13245;DHT22;6689;53.400;12.486;2023-02-24T11:37:37;3.40;99.90
13245;DHT22;6689;53.400;12.486;2023-02-24T11:40:11;3.40;99.90
13245;DHT22;6689;53.400;12.486;2023-02-24T11:42:45;3.30;99.90
13245;DHT22;6689;53.400;12.486;2023-02-24T11:45:24;3.30;99.90
13245;DHT22;6689;53.400;12.486;2023-02-24T11:47:59;3.30;99.90
13245;DHT22;6689;53.400;12.486;2023-02-24T11:50:34;3.40;99.90
13245;DHT22;6689;53.400;12.486;2023-02-24T11:53:10;3.40;1.00
13245;DHT22;6689;53.400;12.486;2023-02-24T11:55:44;3.30;99.90
13245;DHT22;6689;53.400;12.486;2023-02-24T11:58:16;3.40;1.00
13245;DHT22;6689;53.400;12.486;2023-02-24T12:00:51;3.40;1.00
13245;DHT22;6689;53.400;12.486;2023-02-24T12:03:29;3.40;1.00
13245;DHT22;6689;53.400;12.486;2023-02-24T12:06:12;3.50;1.00
13245;DHT22;6689;53.400;12.486;2023-02-24T12:08:43;3.50;1.00
13245;DHT22;6689;53.400;12.486;2023-02-24T12:11:16;3.50;1.00
13245;DHT22;6689;53.400;12.486;2023-02-24T12:13:50;3.50;99.90
13245;DHT22;6689;53.400;12.486;2023-02-24T12:16:21;3.60;1.00
13245;DHT22;6689;53.400;12.486;2023-02-24T12:18:55;3.50;1.00
13245;DHT22;6689;53.400;12.486;2023-02-24T12:21:27;3.50;1.00
13245;DHT22;6689;53.400;12.486;2023-02-24T12:23:58;3.50;99.90
13245;DHT22;6689;53.400;12.486;2023-02-24T12:26:29;3.60;99.90
13245;DHT22;6689;53.400;12.486;2023-02-24T12:29:34;3.50;1.00
13245;DHT22;6689;53.400;12.486;2023-02-24T12:32:16;3.60;1.00
13245;DHT22;6689;53.400;12.486;2023-02-24T12:34:54;3.50;1.00
13245;DHT22;6689;53.400;12.486;2023-02-24T12:37:34;3.50;1.00
13245;DHT22;6689;53.400;12.486;2023-02-24T12:40:19;3.60;1.00
13245;DHT22;6689;53.400;12.486;2023-02-24T12:42:54;3.60;1.00
13245;DHT22;6689;53.400;12.486;2023-02-24T12:45:30;3.50;1.00
13245;DHT22;6689;53.400;12.486;2023-02-24T12:48:08;3.60;1.00
13245;DHT22;6689;53.400;12.486;2023-02-24T12:50:47;3.60;1.00
13245;DHT22;6689;53.400;12.486;2023-02-24T12:53:21;3.70;1.00
13245;DHT22;6689;53.400;12.486;2023-02-24T12:55:56;3.70;1.00
13245;DHT22;6689;53.400;12.486;2023-02-24T12:58:31;3.70;1.00
13245;DHT22;6689;53.400;12.486;2023-02-24T13:01:06;3.70;1.00
13245;DHT22;6689;53.400;12.486;2023-02-24T13:03:53;3.80;1.00
13245;DHT22;6689;53.400;12.486;2023-02-24T13:06:36;3.80;1.00
13245;DHT22;6689;53.400;12.486;2023-02-24T13:09:13;3.80;1.00
13245;DHT22;6689;53.400;12.486;2023-02-24T13:11:48;3.80;1.00
13245;DHT22;6689;53.400;12.486;2023-02-24T13:14:23;3.90;1.00
13245;DHT22;6689;53.400;12.486;2023-02-24T13:17:13;3.90;1.00
13245;DHT22;6689;53.400;12.486;2023-02-24T13:19:45;4.00;1.00
13245;DHT22;6689;53.400;12.486;2023-02-24T13:22:27;4.00;1.00
13245;DHT22;6689;53.400;12.486;2023-02-24T13:24:57;3.90;1.00
13245;DHT22;6689;53.400;12.486;2023-02-24T13:27:28;3.90;1.00
13245;DHT22;6689;53.400;12.486;2023-02-24T13:29:58;3.90;1.00
13245;DHT22;6689;53.400;12.486;2023-02-24T13:32:30;3.90;1.00
13245;DHT22;6689;53.400;12.486;2023-02-24T13:35:00;4.00;1.00
13245;DHT22;6689;53.400;12.486;2023-02-24T13:37:32;3.90;1.00
13245;DHT22;6689;53.400;12.486;2023-02-24T13:40:11;4.00;1.00
13245;DHT22;6689;53.400;12.486;2023-02-24T13:42:41;4.00;1.00
13245;DHT22;6689;53.400;12.486;2023-02-24T13:45:18;3.90;1.00
13245;DHT22;6689;53.400;12.486;2023-02-24T13:48:06;3.90;1.00
13245;DHT22;6689;53.400;12.486;2023-02-24T13:50:41;3.90;1.00
13245;DHT22;6689;53.400;12.486;2023-02-24T13:53:33;4.00;1.00
13245;DHT22;6689;53.400;12.486;2023-02-24T13:56:11;3.90;1.00
13245;DHT22;6689;53.400;12.486;2023-02-24T14:01:47;4.00;1.00
13245;DHT22;6689;53.400;12.486;2023-02-24T14:04:17;4.10;1.00
13245;DHT22;6689;53.400;12.486;2023-02-24T14:06:49;4.10;1.00
13245;DHT22;6689;53.400;12.486;2023-02-24T14:09:22;4.10;1.00
13245;DHT22;6689;53.400;12.486;2023-02-24T14:11:55;4.10;1.00
13245;DHT22;6689;53.400;12.486;2023-02-24T14:14:24;4.20;1.00
13245;DHT22;6689;53.400;12.486;2023-02-24T14:16:52;4.20;1.00
13245;DHT22;6689;53.400;12.486;2023-02-24T14:19:20;4.20;1.00
13245;DHT22;6689;53.400;12.486;2023-02-24T14:21:49;4.20;1.00
13245;DHT22;6689;53.400;12.486;2023-02-24T14:24:19;4.20;1.00
13245;DHT22;6689;53.400;12.486;2023-02-24T14:26:49;4.20;1.00
13245;DHT22;6689;53.400;12.486;2023-02-24T14:29:18;4.30;1.00
13245;DHT22;6689;53.400;12.486;2023-02-24T14:31:48;4.30;1.00
13245;DHT22;6689;53.400;12.486;2023-02-24T14:34:19;4.20;1.00
13245;DHT22;6689;53.400;12.486;2023-02-24T14:36:48;4.20;1.00
13245;DHT22;6689;53.400;12.486;2023-02-24T14:39:20;4.30;1.00
13245;DHT22;6689;53.400;12.486;2023-02-24T14:41:49;4.30;1.00
13245;DHT22;6689;53.400;12.486;2023-02-24T14:44:19;4.20;1.00
13245;DHT22;6689;53.400;12.486;2023-02-24T14:46:51;4.20;1.00
13245;DHT22;6689;53.400;12.486;2023-02-24T14:49:21;4.30;1.00
13245;DHT22;6689;53.400;12.486;2023-02-24T14:51:54;4.20;1.00
13245;DHT22;6689;53.400;12.486;2023-02-24T14:54:36;4.20;1.00
13245;DHT22;6689;53.400;12.486;2023-02-24T14:57:07;4.20;1.00
13245;DHT22;6689;53.400;12.486;2023-02-24T14:59:38;4.30;1.00
13245;DHT22;6689;53.400;12.486;2023-02-24T15:02:13;4.30;1.00
13245;DHT22;6689;53.400;12.486;2023-02-24T15:04:44;4.30;1.00
13245;DHT22;6689;53.400;12.486;2023-02-24T15:07:16;4.20;1.00
13245;DHT22;6689;53.400;12.486;2023-02-24T15:09:47;4.20;1.00
13245;DHT22;6689;53.400;12.486;2023-02-24T15:12:20;4.20;1.00
13245;DHT22;6689;53.400;12.486;2023-02-24T15:14:51;4.20;1.00
13245;DHT22;6689;53.400;12.486;2023-02-24T15:17:20;4.20;1.00
13245;DHT22;6689;53.400;12.486;2023-02-24T15:19:49;4.20;1.00
13245;DHT22;6689;53.400;12.486;2023-02-24T15:22:22;4.20;1.00
13245;DHT22;6689;53.400;12.486;2023-02-24T15:24:53;4.30;1.00
13245;DHT22;6689;53.400;12.486;2023-02-24T15:27:25;4.30;1.00
13245;DHT22;6689;53.400;12.486;2023-02-24T15:29:57;4.20;1.00
13245;DHT22;6689;53.400;12.486;2023-02-24T15:32:26;4.30;1.00
13245;DHT22;6689;53.400;12.486;2023-02-24T15:34:53;4.20;1.00
13245;DHT22;6689;53.400;12.486;2023-02-24T15:37:23;4.20;1.00
13245;DHT22;6689;53.400;12.486;2023-02-24T15:40:01;4.10;1.00
13245;DHT22;6689;53.400;12.486;2023-02-24T15:42:31;4.20;1.00
13245;DHT22;6689;53.400;12.486;2023-02-24T15:45:00;4.20;1.00
13245;DHT22;6689;53.400;12.486;2023-02-24T15:47:29;4.30;1.00
13245;DHT22;6689;53.400;12.486;2023-02-24T15:49:57;4.20;1.00
13245;DHT22;6689;53.400;12.486;2023-02-24T15:52:26;4.30;1.00
13245;DHT22;6689;53.400;12.486;2023-02-24T15:54:56;4.20;1.00
13245;DHT22;6689;53.400;12.486;2023-02-24T15:57:25;4.30;1.00
13245;DHT22;6689;53.400;12.486;2023-02-24T15:59:53;4.20;1.00
13245;DHT22;6689;53.400;12.486;2023-02-24T16:02:21;4.30;1.00
13245;DHT22;6689;53.400;12.486;2023-02-24T16:04:50;4.30;1.00
13245;DHT22;6689;53.400;12.486;2023-02-24T16:07:21;4.30;1.00
13245;DHT22;6689;53.400;12.486;2023-02-24T16:09:51;4.30;1.00
13245;DHT22;6689;53.400;12.486;2023-02-24T16:12:23;4.20;1.00
13245;DHT22;6689;53.400;12.486;2023-02-24T16:14:53;4.20;1.00
13245;DHT22;6689;53.400;12.486;2023-02-24T16:17:32;4.30;1.00
13245;DHT22;6689;53.400;12.486;2023-02-24T16:20:00;4.30;1.00
13245;DHT22;6689;53.400;12.486;2023-02-24T16:22:33;4.40;1.00
13245;DHT22;6689;53.400;12.486;2023-02-24T16:25:01;4.20;1.00
13245;DHT22;6689;53.400;12.486;2023-02-24T16:27:30;4.20;1.00
13245;DHT22;6689;53.400;12.486;2023-02-24T16:29:57;4.20;1.00
13245;DHT22;6689;53.400;12.486;2023-02-24T16:32:25;4.20;1.00
13245;DHT22;6689;53.400;12.486;2023-02-24T16:34:52;4.20;1.00
13245;DHT22;6689;53.400;12.486;2023-02-24T16:37:22;4.20;1.00
13245;DHT22;6689;53.400;12.486;2023-02-24T16:39:51;4.10;1.00
13245;DHT22;6689;53.400;12.486;2023-02-24T16:42:20;4.20;1.00
13245;DHT22;6689;53.400;12.486;2023-02-24T16:44:49;4.20;1.00